sensor_id;sensor_type;location;lat;lon;timestamp;temperature;humidity
60313;DHT22;46158;52.850;6.970;2022-10-17T00:01:06;17.20;86.50
60313;DHT22;46158;52.850;6.970;2022-10-17T00:03:33;17.20;86.50
60313;DHT22;46158;52.850;6.970;2022-10-17T00:06:03;17.20;86.50
60313;DHT22;46158;52.850;6.970;2022-10-17T00:08:29;17.20;86.50
60313;DHT22;46158;52.850;6.970;2022-10-17T00:11:00;17.20;86.50
60313;DHT22;46158;52.850;6.970;2022-10-17T00:13:26;17.20;86.50
60313;DHT22;46158;52.850;6.970;2022-10-17T00:15:51;17.20;86.50
60313;DHT22;46158;52.850;6.970;2022-10-17T00:18:17;17.20;86.40
60313;DHT22;46158;52.850;6.970;2022-10-17T00:20:43;17.20;86.40
60313;DHT22;46158;52.850;6.970;2022-10-17T00:23:08;17.20;86.40
60313;DHT22;46158;52.850;6.970;2022-10-17T00:25:34;17.20;86.40
60313;DHT22;46158;52.850;6.970;2022-10-17T00:28:01;17.20;86.40
60313;DHT22;46158;52.850;6.970;2022-10-17T00:30:27;17.20;86.40
60313;DHT22;46158;52.850;6.970;2022-10-17T00:32:53;17.20;86.40
60313;DHT22;46158;52.850;6.970;2022-10-17T00:35:18;17.20;86.40
60313;DHT22;46158;52.850;6.970;2022-10-17T00:37:44;17.10;86.30
60313;DHT22;46158;52.850;6.970;2022-10-17T00:40:10;17.10;86.30
60313;DHT22;46158;52.850;6.970;2022-10-17T00:42:36;17.10;86.30
60313;DHT22;46158;52.850;6.970;2022-10-17T00:45:16;17.10;86.30
60313;DHT22;46158;52.850;6.970;2022-10-17T00:47:43;17.10;86.20
60313;DHT22;46158;52.850;6.970;2022-10-17T00:50:10;17.10;86.30
60313;DHT22;46158;52.850;6.970;2022-10-17T00:52:37;17.10;86.30
60313;DHT22;46158;52.850;6.970;2022-10-17T00:55:29;17.10;86.20
60313;DHT22;46158;52.850;6.970;2022-10-17T00:57:57;17.10;86.20
60313;DHT22;46158;52.850;6.970;2022-10-17T01:00:24;17.10;86.30
60313;DHT22;46158;52.850;6.970;2022-10-17T01:02:50;17.10;86.20
60313;DHT22;46158;52.850;6.970;2022-10-17T01:05:17;17.10;86.20
60313;DHT22;46158;52.850;6.970;2022-10-17T01:07:43;17.10;86.20
60313;DHT22;46158;52.850;6.970;2022-10-17T01:10:11;17.10;86.20
60313;DHT22;46158;52.850;6.970;2022-10-17T01:15:43;17.00;86.00
60313;DHT22;46158;52.850;6.970;2022-10-17T01:34:40;17.00;86.20
60313;DHT22;46158;52.850;6.970;2022-10-17T01:37:32;17.00;86.10
60313;DHT22;46158;52.850;6.970;2022-10-17T01:40:07;17.00;86.10
60313;DHT22;46158;52.850;6.970;2022-10-17T01:42:41;17.00;86.10
60313;DHT22;46158;52.850;6.970;2022-10-17T01:47:50;17.00;86.10
60313;DHT22;46158;52.850;6.970;2022-10-17T01:50:31;17.00;86.10
60313;DHT22;46158;52.850;6.970;2022-10-17T01:53:09;16.90;85.90
60313;DHT22;46158;52.850;6.970;2022-10-17T01:55:39;16.90;86.00
60313;DHT22;46158;52.850;6.970;2022-10-17T01:58:21;16.90;86.00
60313;DHT22;46158;52.850;6.970;2022-10-17T02:00:48;16.90;85.90
60313;DHT22;46158;52.850;6.970;2022-10-17T02:03:18;16.90;86.00
60313;DHT22;46158;52.850;6.970;2022-10-17T02:05:45;16.90;85.90
60313;DHT22;46158;52.850;6.970;2022-10-17T02:08:12;16.90;85.90
60313;DHT22;46158;52.850;6.970;2022-10-17T02:13:22;16.90;85.90
60313;DHT22;46158;52.850;6.970;2022-10-17T02:21:40;16.90;86.00
60313;DHT22;46158;52.850;6.970;2022-10-17T02:26:55;16.90;85.90
60313;DHT22;46158;52.850;6.970;2022-10-17T02:29:29;16.90;85.90
60313;DHT22;46158;52.850;6.970;2022-10-17T02:32:07;16.90;85.90
60313;DHT22;46158;52.850;6.970;2022-10-17T02:34:43;16.90;85.90
60313;DHT22;46158;52.850;6.970;2022-10-17T02:37:12;16.90;85.90
60313;DHT22;46158;52.850;6.970;2022-10-17T02:39:40;16.90;85.90
60313;DHT22;46158;52.850;6.970;2022-10-17T02:42:10;16.80;85.80
60313;DHT22;46158;52.850;6.970;2022-10-17T02:44:41;16.90;85.90
60313;DHT22;46158;52.850;6.970;2022-10-17T02:49:50;16.80;85.70
60313;DHT22;46158;52.850;6.970;2022-10-17T02:55:16;16.80;85.80
60313;DHT22;46158;52.850;6.970;2022-10-17T02:57:47;16.80;85.60
60313;DHT22;46158;52.850;6.970;2022-10-17T03:00:16;16.80;85.70
60313;DHT22;46158;52.850;6.970;2022-10-17T03:02:47;16.80;85.70
60313;DHT22;46158;52.850;6.970;2022-10-17T03:05:20;16.80;85.70
60313;DHT22;46158;52.850;6.970;2022-10-17T03:07:46;16.80;85.70
60313;DHT22;46158;52.850;6.970;2022-10-17T03:10:12;16.80;85.70
60313;DHT22;46158;52.850;6.970;2022-10-17T03:12:37;16.80;85.70
60313;DHT22;46158;52.850;6.970;2022-10-17T03:15:04;16.80;85.60
60313;DHT22;46158;52.850;6.970;2022-10-17T03:17:30;16.80;85.60
60313;DHT22;46158;52.850;6.970;2022-10-17T03:19:55;16.80;85.60
60313;DHT22;46158;52.850;6.970;2022-10-17T03:22:21;16.70;85.50
60313;DHT22;46158;52.850;6.970;2022-10-17T03:24:47;16.70;85.50
60313;DHT22;46158;52.850;6.970;2022-10-17T03:27:13;16.70;85.60
60313;DHT22;46158;52.850;6.970;2022-10-17T03:29:38;16.70;85.50
60313;DHT22;46158;52.850;6.970;2022-10-17T03:32:04;16.70;85.50
60313;DHT22;46158;52.850;6.970;2022-10-17T03:34:30;16.70;85.50
60313;DHT22;46158;52.850;6.970;2022-10-17T03:36:55;16.70;85.40
60313;DHT22;46158;52.850;6.970;2022-10-17T03:39:21;16.70;85.40
60313;DHT22;46158;52.850;6.970;2022-10-17T03:41:47;16.70;85.50
60313;DHT22;46158;52.850;6.970;2022-10-17T03:44:12;16.70;85.40
60313;DHT22;46158;52.850;6.970;2022-10-17T03:46:38;16.70;85.40
60313;DHT22;46158;52.850;6.970;2022-10-17T03:49:04;16.70;85.40
60313;DHT22;46158;52.850;6.970;2022-10-17T03:51:32;16.70;85.40
60313;DHT22;46158;52.850;6.970;2022-10-17T03:53:57;16.70;85.40
60313;DHT22;46158;52.850;6.970;2022-10-17T03:56:24;16.70;85.40
60313;DHT22;46158;52.850;6.970;2022-10-17T03:58:50;16.70;85.40
60313;DHT22;46158;52.850;6.970;2022-10-17T04:01:16;16.70;85.40
60313;DHT22;46158;52.850;6.970;2022-10-17T04:03:43;16.70;85.30
60313;DHT22;46158;52.850;6.970;2022-10-17T04:06:12;16.70;85.30
60313;DHT22;46158;52.850;6.970;2022-10-17T04:08:38;16.60;85.30
60313;DHT22;46158;52.850;6.970;2022-10-17T04:11:06;16.60;85.30
60313;DHT22;46158;52.850;6.970;2022-10-17T04:13:32;16.70;85.30
60313;DHT22;46158;52.850;6.970;2022-10-17T04:16:00;16.70;85.30
60313;DHT22;46158;52.850;6.970;2022-10-17T04:18:26;16.70;85.30
60313;DHT22;46158;52.850;6.970;2022-10-17T04:20:52;16.60;85.20
60313;DHT22;46158;52.850;6.970;2022-10-17T04:23:18;16.60;85.20
60313;DHT22;46158;52.850;6.970;2022-10-17T04:25:44;16.60;85.20
60313;DHT22;46158;52.850;6.970;2022-10-17T04:28:09;16.60;85.20
60313;DHT22;46158;52.850;6.970;2022-10-17T04:30:35;16.60;85.20
60313;DHT22;46158;52.850;6.970;2022-10-17T04:33:01;16.60;85.20
60313;DHT22;46158;52.850;6.970;2022-10-17T04:35:26;16.60;85.20
60313;DHT22;46158;52.850;6.970;2022-10-17T04:37:52;16.60;85.20
60313;DHT22;46158;52.850;6.970;2022-10-17T04:40:18;16.60;85.10
60313;DHT22;46158;52.850;6.970;2022-10-17T04:42:43;16.60;85.10
60313;DHT22;46158;52.850;6.970;2022-10-17T04:45:09;16.60;85.10
60313;DHT22;46158;52.850;6.970;2022-10-17T04:47:35;16.60;85.20
60313;DHT22;46158;52.850;6.970;2022-10-17T04:50:00;16.60;85.10
60313;DHT22;46158;52.850;6.970;2022-10-17T04:52:26;16.60;85.10
60313;DHT22;46158;52.850;6.970;2022-10-17T04:54:52;16.60;85.00
60313;DHT22;46158;52.850;6.970;2022-10-17T04:57:18;16.60;85.00
60313;DHT22;46158;52.850;6.970;2022-10-17T04:59:44;16.60;85.00
60313;DHT22;46158;52.850;6.970;2022-10-17T05:02:10;16.60;85.10
60313;DHT22;46158;52.850;6.970;2022-10-17T05:04:36;16.60;85.20
60313;DHT22;46158;52.850;6.970;2022-10-17T05:07:02;16.60;85.10
60313;DHT22;46158;52.850;6.970;2022-10-17T05:09:28;16.60;85.10
60313;DHT22;46158;52.850;6.970;2022-10-17T05:11:54;16.60;85.10
60313;DHT22;46158;52.850;6.970;2022-10-17T05:14:20;16.60;85.10
60313;DHT22;46158;52.850;6.970;2022-10-17T05:16:46;16.60;85.10
60313;DHT22;46158;52.850;6.970;2022-10-17T05:19:11;16.60;85.10
60313;DHT22;46158;52.850;6.970;2022-10-17T05:21:37;16.60;85.10
60313;DHT22;46158;52.850;6.970;2022-10-17T05:24:09;16.60;85.10
60313;DHT22;46158;52.850;6.970;2022-10-17T05:26:35;16.50;85.10
60313;DHT22;46158;52.850;6.970;2022-10-17T05:29:02;16.50;85.10
60313;DHT22;46158;52.850;6.970;2022-10-17T05:31:29;16.60;85.20
60313;DHT22;46158;52.850;6.970;2022-10-17T05:33:55;16.50;85.10
60313;DHT22;46158;52.850;6.970;2022-10-17T05:36:21;16.50;85.10
60313;DHT22;46158;52.850;6.970;2022-10-17T05:38:51;16.50;85.20
60313;DHT22;46158;52.850;6.970;2022-10-17T05:41:17;16.50;85.10
60313;DHT22;46158;52.850;6.970;2022-10-17T05:43:43;16.50;85.20
60313;DHT22;46158;52.850;6.970;2022-10-17T05:46:09;16.50;85.30
60313;DHT22;46158;52.850;6.970;2022-10-17T05:48:35;16.50;86.00
60313;DHT22;46158;52.850;6.970;2022-10-17T05:51:05;16.50;85.20
60313;DHT22;46158;52.850;6.970;2022-10-17T05:53:34;16.50;85.20
60313;DHT22;46158;52.850;6.970;2022-10-17T05:56:03;16.50;85.20
60313;DHT22;46158;52.850;6.970;2022-10-17T05:58:29;16.50;85.20
60313;DHT22;46158;52.850;6.970;2022-10-17T06:00:59;16.50;85.20
60313;DHT22;46158;52.850;6.970;2022-10-17T06:03:25;16.50;85.20
60313;DHT22;46158;52.850;6.970;2022-10-17T06:05:52;16.50;85.20
60313;DHT22;46158;52.850;6.970;2022-10-17T06:08:18;16.50;85.30
60313;DHT22;46158;52.850;6.970;2022-10-17T06:10:46;16.50;85.30
60313;DHT22;46158;52.850;6.970;2022-10-17T06:13:12;16.60;85.30
60313;DHT22;46158;52.850;6.970;2022-10-17T06:15:38;16.50;85.60
60313;DHT22;46158;52.850;6.970;2022-10-17T06:18:03;16.50;86.00
60313;DHT22;46158;52.850;6.970;2022-10-17T06:20:29;16.50;85.30
60313;DHT22;46158;52.850;6.970;2022-10-17T06:22:54;16.50;85.30
60313;DHT22;46158;52.850;6.970;2022-10-17T06:25:20;16.60;85.30
60313;DHT22;46158;52.850;6.970;2022-10-17T06:27:46;16.50;85.30
60313;DHT22;46158;52.850;6.970;2022-10-17T06:30:14;16.50;85.30
60313;DHT22;46158;52.850;6.970;2022-10-17T06:32:40;16.50;85.40
60313;DHT22;46158;52.850;6.970;2022-10-17T06:35:06;16.50;85.40
60313;DHT22;46158;52.850;6.970;2022-10-17T06:37:32;16.50;85.40
60313;DHT22;46158;52.850;6.970;2022-10-17T06:39:58;16.50;85.40
60313;DHT22;46158;52.850;6.970;2022-10-17T06:42:24;16.60;85.40
60313;DHT22;46158;52.850;6.970;2022-10-17T06:44:50;16.50;85.50
60313;DHT22;46158;52.850;6.970;2022-10-17T06:47:15;16.50;85.50
60313;DHT22;46158;52.850;6.970;2022-10-17T06:49:41;16.50;85.50
60313;DHT22;46158;52.850;6.970;2022-10-17T06:52:07;16.50;85.50
60313;DHT22;46158;52.850;6.970;2022-10-17T06:54:34;16.50;85.50
60313;DHT22;46158;52.850;6.970;2022-10-17T06:56:59;16.50;85.50
60313;DHT22;46158;52.850;6.970;2022-10-17T06:59:25;16.50;85.50
60313;DHT22;46158;52.850;6.970;2022-10-17T07:01:50;16.50;85.50
60313;DHT22;46158;52.850;6.970;2022-10-17T07:04:16;16.50;85.60
60313;DHT22;46158;52.850;6.970;2022-10-17T07:06:42;16.50;85.70
60313;DHT22;46158;52.850;6.970;2022-10-17T07:09:08;16.50;85.70
60313;DHT22;46158;52.850;6.970;2022-10-17T07:11:34;16.50;85.70
60313;DHT22;46158;52.850;6.970;2022-10-17T07:14:00;16.50;85.70
60313;DHT22;46158;52.850;6.970;2022-10-17T07:16:26;16.60;85.80
60313;DHT22;46158;52.850;6.970;2022-10-17T07:18:52;16.50;85.80
60313;DHT22;46158;52.850;6.970;2022-10-17T07:21:19;16.50;85.80
60313;DHT22;46158;52.850;6.970;2022-10-17T07:23:45;16.50;85.80
60313;DHT22;46158;52.850;6.970;2022-10-17T07:26:13;16.50;86.40
60313;DHT22;46158;52.850;6.970;2022-10-17T07:28:42;16.50;85.80
60313;DHT22;46158;52.850;6.970;2022-10-17T07:31:11;16.50;85.80
60313;DHT22;46158;52.850;6.970;2022-10-17T07:33:37;16.50;85.80
60313;DHT22;46158;52.850;6.970;2022-10-17T07:36:04;16.50;85.80
60313;DHT22;46158;52.850;6.970;2022-10-17T07:38:29;16.50;85.80
60313;DHT22;46158;52.850;6.970;2022-10-17T07:40:56;16.60;85.80
60313;DHT22;46158;52.850;6.970;2022-10-17T07:43:23;16.50;85.80
60313;DHT22;46158;52.850;6.970;2022-10-17T07:45:50;16.50;85.80
60313;DHT22;46158;52.850;6.970;2022-10-17T07:48:15;16.50;85.80
60313;DHT22;46158;52.850;6.970;2022-10-17T07:50:41;16.50;85.70
60313;DHT22;46158;52.850;6.970;2022-10-17T07:53:07;16.50;85.80
60313;DHT22;46158;52.850;6.970;2022-10-17T07:55:33;16.50;85.70
60313;DHT22;46158;52.850;6.970;2022-10-17T07:57:58;16.50;85.70
60313;DHT22;46158;52.850;6.970;2022-10-17T08:00:27;16.50;85.70
60313;DHT22;46158;52.850;6.970;2022-10-17T08:02:55;16.50;85.70
60313;DHT22;46158;52.850;6.970;2022-10-17T08:05:21;16.60;85.70
60313;DHT22;46158;52.850;6.970;2022-10-17T08:07:46;16.60;85.70
60313;DHT22;46158;52.850;6.970;2022-10-17T08:10:13;16.60;85.80
60313;DHT22;46158;52.850;6.970;2022-10-17T08:12:39;16.60;85.70
60313;DHT22;46158;52.850;6.970;2022-10-17T08:15:06;16.60;85.70
60313;DHT22;46158;52.850;6.970;2022-10-17T08:17:36;16.60;85.70
60313;DHT22;46158;52.850;6.970;2022-10-17T08:20:03;16.60;85.70
60313;DHT22;46158;52.850;6.970;2022-10-17T08:22:29;16.60;85.70
60313;DHT22;46158;52.850;6.970;2022-10-17T08:24:55;16.60;85.80
60313;DHT22;46158;52.850;6.970;2022-10-17T08:27:21;16.60;85.80
60313;DHT22;46158;52.850;6.970;2022-10-17T08:29:52;16.60;85.80
60313;DHT22;46158;52.850;6.970;2022-10-17T08:32:23;16.60;85.80
60313;DHT22;46158;52.850;6.970;2022-10-17T08:34:51;16.60;85.80
60313;DHT22;46158;52.850;6.970;2022-10-17T08:37:17;16.60;85.80
60313;DHT22;46158;52.850;6.970;2022-10-17T08:39:43;16.60;85.80
60313;DHT22;46158;52.850;6.970;2022-10-17T08:45:18;16.60;85.70
60313;DHT22;46158;52.850;6.970;2022-10-17T08:47:48;16.60;85.70
60313;DHT22;46158;52.850;6.970;2022-10-17T08:53:10;16.60;85.70
60313;DHT22;46158;52.850;6.970;2022-10-17T08:55:41;16.60;85.70
60313;DHT22;46158;52.850;6.970;2022-10-17T08:58:28;16.60;85.70
60313;DHT22;46158;52.850;6.970;2022-10-17T09:03:41;16.60;85.70
60313;DHT22;46158;52.850;6.970;2022-10-17T09:19:34;16.60;85.50
60313;DHT22;46158;52.850;6.970;2022-10-17T09:22:10;16.60;85.60
60313;DHT22;46158;52.850;6.970;2022-10-17T09:24:45;16.60;85.50
60313;DHT22;46158;52.850;6.970;2022-10-17T09:27:39;16.60;85.50
60313;DHT22;46158;52.850;6.970;2022-10-17T09:32:40;16.60;85.50
60313;DHT22;46158;52.850;6.970;2022-10-17T09:35:12;16.60;85.40
60313;DHT22;46158;52.850;6.970;2022-10-17T09:37:40;16.60;85.40
60313;DHT22;46158;52.850;6.970;2022-10-17T09:40:11;16.60;85.40
60313;DHT22;46158;52.850;6.970;2022-10-17T09:42:40;16.60;85.40
60313;DHT22;46158;52.850;6.970;2022-10-17T09:50:28;16.60;85.30
60313;DHT22;46158;52.850;6.970;2022-10-17T09:52:56;16.60;85.30
60313;DHT22;46158;52.850;6.970;2022-10-17T09:58:10;16.60;85.40
60313;DHT22;46158;52.850;6.970;2022-10-17T10:00:42;16.60;85.40
60313;DHT22;46158;52.850;6.970;2022-10-17T10:03:22;16.60;85.40
60313;DHT22;46158;52.850;6.970;2022-10-17T10:06:13;16.60;85.20
60313;DHT22;46158;52.850;6.970;2022-10-17T10:08:54;16.60;85.20
60313;DHT22;46158;52.850;6.970;2022-10-17T10:11:43;16.60;85.20
60313;DHT22;46158;52.850;6.970;2022-10-17T10:14:21;16.60;85.20
60313;DHT22;46158;52.850;6.970;2022-10-17T10:16:47;16.60;85.20
60313;DHT22;46158;52.850;6.970;2022-10-17T10:19:35;16.60;85.20
60313;DHT22;46158;52.850;6.970;2022-10-17T10:22:09;16.60;85.10
60313;DHT22;46158;52.850;6.970;2022-10-17T10:24:39;16.60;85.10
60313;DHT22;46158;52.850;6.970;2022-10-17T10:27:05;16.60;85.10
60313;DHT22;46158;52.850;6.970;2022-10-17T10:29:40;16.60;85.10
60313;DHT22;46158;52.850;6.970;2022-10-17T10:32:14;16.60;85.10
60313;DHT22;46158;52.850;6.970;2022-10-17T10:37:17;16.60;85.10
60313;DHT22;46158;52.850;6.970;2022-10-17T10:39:52;16.60;85.00
60313;DHT22;46158;52.850;6.970;2022-10-17T10:42:34;16.60;85.00
60313;DHT22;46158;52.850;6.970;2022-10-17T10:46:01;16.60;85.00
60313;DHT22;46158;52.850;6.970;2022-10-17T10:48:23;16.60;85.00
60313;DHT22;46158;52.850;6.970;2022-10-17T10:53:32;16.60;85.10
60313;DHT22;46158;52.850;6.970;2022-10-17T10:58:33;16.60;85.10
60313;DHT22;46158;52.850;6.970;2022-10-17T11:01:05;16.60;85.10
60313;DHT22;46158;52.850;6.970;2022-10-17T11:03:38;16.60;85.20
60313;DHT22;46158;52.850;6.970;2022-10-17T11:06:12;16.60;85.20
60313;DHT22;46158;52.850;6.970;2022-10-17T11:08:47;16.60;85.20
60313;DHT22;46158;52.850;6.970;2022-10-17T11:11:24;16.60;85.10
60313;DHT22;46158;52.850;6.970;2022-10-17T11:16:36;16.60;85.10
60313;DHT22;46158;52.850;6.970;2022-10-17T11:19:09;16.60;85.00
60313;DHT22;46158;52.850;6.970;2022-10-17T11:21:46;16.60;85.10
60313;DHT22;46158;52.850;6.970;2022-10-17T11:24:24;16.60;85.00
60313;DHT22;46158;52.850;6.970;2022-10-17T11:27:03;16.60;85.00
60313;DHT22;46158;52.850;6.970;2022-10-17T11:29:34;16.60;85.10
60313;DHT22;46158;52.850;6.970;2022-10-17T11:32:11;16.60;85.10
60313;DHT22;46158;52.850;6.970;2022-10-17T11:34:45;16.60;85.20
60313;DHT22;46158;52.850;6.970;2022-10-17T11:37:22;16.60;85.10
60313;DHT22;46158;52.850;6.970;2022-10-17T11:39:55;16.60;85.10
60313;DHT22;46158;52.850;6.970;2022-10-17T11:42:29;16.70;85.20
60313;DHT22;46158;52.850;6.970;2022-10-17T11:45:07;16.60;85.10
60313;DHT22;46158;52.850;6.970;2022-10-17T11:47:52;16.70;85.20
60313;DHT22;46158;52.850;6.970;2022-10-17T11:50:29;16.70;85.20
60313;DHT22;46158;52.850;6.970;2022-10-17T11:53:07;16.60;85.20
60313;DHT22;46158;52.850;6.970;2022-10-17T11:55:35;16.70;85.30
60313;DHT22;46158;52.850;6.970;2022-10-17T11:58:31;16.70;85.30
60313;DHT22;46158;52.850;6.970;2022-10-17T12:12:05;16.70;85.30
60313;DHT22;46158;52.850;6.970;2022-10-17T12:14:42;16.60;85.20
60313;DHT22;46158;52.850;6.970;2022-10-17T12:25:29;16.70;85.30
60313;DHT22;46158;52.850;6.970;2022-10-17T12:30:56;16.70;85.20
60313;DHT22;46158;52.850;6.970;2022-10-17T12:38:42;16.70;85.20
60313;DHT22;46158;52.850;6.970;2022-10-17T12:41:08;16.70;85.30
60313;DHT22;46158;52.850;6.970;2022-10-17T12:43:49;16.70;85.30
60313;DHT22;46158;52.850;6.970;2022-10-17T12:46:51;16.70;85.20
60313;DHT22;46158;52.850;6.970;2022-10-17T12:49:35;16.70;85.20
60313;DHT22;46158;52.850;6.970;2022-10-17T12:54:30;16.70;85.30
60313;DHT22;46158;52.850;6.970;2022-10-17T12:56:56;16.70;85.40
60313;DHT22;46158;52.850;6.970;2022-10-17T12:59:27;16.70;85.40
60313;DHT22;46158;52.850;6.970;2022-10-17T13:01:58;16.70;85.40
60313;DHT22;46158;52.850;6.970;2022-10-17T13:04:25;16.70;85.30
60313;DHT22;46158;52.850;6.970;2022-10-17T13:06:55;16.70;85.40
60313;DHT22;46158;52.850;6.970;2022-10-17T13:09:30;16.80;85.40
60313;DHT22;46158;52.850;6.970;2022-10-17T13:11:59;16.80;85.40
60313;DHT22;46158;52.850;6.970;2022-10-17T13:14:26;16.80;85.40
60313;DHT22;46158;52.850;6.970;2022-10-17T13:17:00;16.70;85.50
60313;DHT22;46158;52.850;6.970;2022-10-17T13:19:29;16.80;85.40
60313;DHT22;46158;52.850;6.970;2022-10-17T13:21:58;16.80;85.50
60313;DHT22;46158;52.850;6.970;2022-10-17T13:24:30;16.80;85.50
60313;DHT22;46158;52.850;6.970;2022-10-17T13:26:56;16.80;85.40
60313;DHT22;46158;52.850;6.970;2022-10-17T13:29:23;16.80;85.50
60313;DHT22;46158;52.850;6.970;2022-10-17T13:32:01;16.80;85.50
60313;DHT22;46158;52.850;6.970;2022-10-17T13:34:29;16.80;85.40
60313;DHT22;46158;52.850;6.970;2022-10-17T13:37:00;16.80;85.50
60313;DHT22;46158;52.850;6.970;2022-10-17T13:39:32;16.80;85.50
60313;DHT22;46158;52.850;6.970;2022-10-17T13:42:00;16.80;85.50
60313;DHT22;46158;52.850;6.970;2022-10-17T13:44:32;16.80;85.50
60313;DHT22;46158;52.850;6.970;2022-10-17T13:46:58;16.80;85.50
60313;DHT22;46158;52.850;6.970;2022-10-17T13:51:53;16.80;85.50
60313;DHT22;46158;52.850;6.970;2022-10-17T13:54:46;16.80;85.50
60313;DHT22;46158;52.850;6.970;2022-10-17T13:59:46;16.80;85.60
60313;DHT22;46158;52.850;6.970;2022-10-17T14:02:23;16.80;85.60
60313;DHT22;46158;52.850;6.970;2022-10-17T14:10:22;16.80;85.60
60313;DHT22;46158;52.850;6.970;2022-10-17T14:12:52;16.80;85.50
60313;DHT22;46158;52.850;6.970;2022-10-17T14:15:18;16.80;85.50
60313;DHT22;46158;52.850;6.970;2022-10-17T14:17:56;16.80;85.60
60313;DHT22;46158;52.850;6.970;2022-10-17T14:20:23;16.80;85.40
60313;DHT22;46158;52.850;6.970;2022-10-17T14:22:50;16.80;85.50
60313;DHT22;46158;52.850;6.970;2022-10-17T14:25:34;16.80;85.50
60313;DHT22;46158;52.850;6.970;2022-10-17T14:30:39;16.80;85.50
60313;DHT22;46158;52.850;6.970;2022-10-17T14:33:07;16.80;85.40
60313;DHT22;46158;52.850;6.970;2022-10-17T14:35:35;16.80;85.40
60313;DHT22;46158;52.850;6.970;2022-10-17T14:38:03;16.80;85.40
60313;DHT22;46158;52.850;6.970;2022-10-17T14:40:31;16.90;85.50
60313;DHT22;46158;52.850;6.970;2022-10-17T14:43:02;16.90;85.50
60313;DHT22;46158;52.850;6.970;2022-10-17T14:45:33;16.90;85.40
60313;DHT22;46158;52.850;6.970;2022-10-17T14:48:06;16.90;85.40
60313;DHT22;46158;52.850;6.970;2022-10-17T14:50:34;16.90;85.40
60313;DHT22;46158;52.850;6.970;2022-10-17T14:53:05;16.80;85.40
60313;DHT22;46158;52.850;6.970;2022-10-17T14:55:33;16.90;85.40
60313;DHT22;46158;52.850;6.970;2022-10-17T14:58:00;16.80;85.40
60313;DHT22;46158;52.850;6.970;2022-10-17T15:00:26;16.90;85.50
60313;DHT22;46158;52.850;6.970;2022-10-17T15:02:54;16.90;85.40
60313;DHT22;46158;52.850;6.970;2022-10-17T15:05:20;16.90;85.40
60313;DHT22;46158;52.850;6.970;2022-10-17T15:07:48;16.90;85.40
60313;DHT22;46158;52.850;6.970;2022-10-17T15:10:35;16.90;85.40
60313;DHT22;46158;52.850;6.970;2022-10-17T15:13:01;16.90;85.40
60313;DHT22;46158;52.850;6.970;2022-10-17T15:15:28;16.80;85.40
60313;DHT22;46158;52.850;6.970;2022-10-17T15:17:54;16.90;85.40
60313;DHT22;46158;52.850;6.970;2022-10-17T15:20:20;16.90;85.40
60313;DHT22;46158;52.850;6.970;2022-10-17T15:22:54;16.90;85.40
60313;DHT22;46158;52.850;6.970;2022-10-17T15:25:20;16.90;85.40
60313;DHT22;46158;52.850;6.970;2022-10-17T15:27:46;16.90;85.40
60313;DHT22;46158;52.850;6.970;2022-10-17T15:30:24;16.90;85.40
60313;DHT22;46158;52.850;6.970;2022-10-17T15:32:51;16.90;85.30
60313;DHT22;46158;52.850;6.970;2022-10-17T15:35:19;16.80;85.40
60313;DHT22;46158;52.850;6.970;2022-10-17T15:37:45;16.90;85.40
60313;DHT22;46158;52.850;6.970;2022-10-17T15:40:20;16.90;85.50
60313;DHT22;46158;52.850;6.970;2022-10-17T15:42:46;16.90;85.50
60313;DHT22;46158;52.850;6.970;2022-10-17T15:45:14;16.90;85.60
60313;DHT22;46158;52.850;6.970;2022-10-17T15:47:43;16.90;85.60
60313;DHT22;46158;52.850;6.970;2022-10-17T15:50:13;16.80;85.60
60313;DHT22;46158;52.850;6.970;2022-10-17T15:52:39;16.80;85.70
60313;DHT22;46158;52.850;6.970;2022-10-17T15:55:06;16.80;85.70
60313;DHT22;46158;52.850;6.970;2022-10-17T15:57:44;16.90;85.80
60313;DHT22;46158;52.850;6.970;2022-10-17T16:00:22;16.90;85.80
60313;DHT22;46158;52.850;6.970;2022-10-17T16:02:49;16.80;85.80
60313;DHT22;46158;52.850;6.970;2022-10-17T16:05:32;16.80;85.80
60313;DHT22;46158;52.850;6.970;2022-10-17T16:07:58;16.90;85.80
60313;DHT22;46158;52.850;6.970;2022-10-17T16:10:24;16.80;85.90
60313;DHT22;46158;52.850;6.970;2022-10-17T16:12:50;16.90;86.70
60313;DHT22;46158;52.850;6.970;2022-10-17T16:15:25;16.90;86.10
60313;DHT22;46158;52.850;6.970;2022-10-17T16:17:53;16.90;86.10
60313;DHT22;46158;52.850;6.970;2022-10-17T16:20:20;16.90;86.40
60313;DHT22;46158;52.850;6.970;2022-10-17T16:22:47;16.90;86.50
60313;DHT22;46158;52.850;6.970;2022-10-17T16:25:20;16.90;86.70
60313;DHT22;46158;52.850;6.970;2022-10-17T16:27:48;16.90;86.90
60313;DHT22;46158;52.850;6.970;2022-10-17T16:30:15;17.00;87.00
60313;DHT22;46158;52.850;6.970;2022-10-17T16:32:41;16.90;87.10
60313;DHT22;46158;52.850;6.970;2022-10-17T16:35:07;16.90;87.20
60313;DHT22;46158;52.850;6.970;2022-10-17T16:37:33;16.90;87.40
60313;DHT22;46158;52.850;6.970;2022-10-17T16:40:00;17.00;87.60
60313;DHT22;46158;52.850;6.970;2022-10-17T16:42:26;17.00;87.80
60313;DHT22;46158;52.850;6.970;2022-10-17T16:44:52;17.00;88.00
60313;DHT22;46158;52.850;6.970;2022-10-17T16:47:18;17.00;88.10
60313;DHT22;46158;52.850;6.970;2022-10-17T16:49:43;17.00;88.30
60313;DHT22;46158;52.850;6.970;2022-10-17T16:52:09;17.00;88.40
60313;DHT22;46158;52.850;6.970;2022-10-17T16:54:35;17.10;88.60
60313;DHT22;46158;52.850;6.970;2022-10-17T16:57:01;17.10;88.60
60313;DHT22;46158;52.850;6.970;2022-10-17T16:59:28;17.10;88.70
60313;DHT22;46158;52.850;6.970;2022-10-17T17:01:54;17.10;88.80
60313;DHT22;46158;52.850;6.970;2022-10-17T17:04:20;17.10;88.90
60313;DHT22;46158;52.850;6.970;2022-10-17T17:06:45;17.20;89.00
60313;DHT22;46158;52.850;6.970;2022-10-17T17:09:11;17.20;89.00
60313;DHT22;46158;52.850;6.970;2022-10-17T17:11:37;17.20;89.00
60313;DHT22;46158;52.850;6.970;2022-10-17T17:14:04;17.20;89.00
60313;DHT22;46158;52.850;6.970;2022-10-17T17:16:31;17.20;89.00
60313;DHT22;46158;52.850;6.970;2022-10-17T17:19:00;17.20;89.00
60313;DHT22;46158;52.850;6.970;2022-10-17T17:21:26;17.20;89.00
60313;DHT22;46158;52.850;6.970;2022-10-17T17:23:53;17.30;89.10
60313;DHT22;46158;52.850;6.970;2022-10-17T17:26:21;17.30;89.20
60313;DHT22;46158;52.850;6.970;2022-10-17T17:28:48;17.30;89.20
60313;DHT22;46158;52.850;6.970;2022-10-17T17:31:19;17.30;89.20
60313;DHT22;46158;52.850;6.970;2022-10-17T17:33:45;17.30;89.10
60313;DHT22;46158;52.850;6.970;2022-10-17T17:36:16;17.30;89.00
60313;DHT22;46158;52.850;6.970;2022-10-17T17:38:44;17.30;89.10
60313;DHT22;46158;52.850;6.970;2022-10-17T17:41:11;17.30;89.00
60313;DHT22;46158;52.850;6.970;2022-10-17T17:43:38;17.30;89.90
60313;DHT22;46158;52.850;6.970;2022-10-17T17:46:04;17.30;89.40
60313;DHT22;46158;52.850;6.970;2022-10-17T17:48:31;17.30;89.40